sensor_id;sensor_type;location;lat;lon;timestamp;P1;durP1;ratioP1;P2;durP2;ratioP2
57889;SDS011;43707;50.184;18.966;2023-08-24T00:00:44;2.30;;;1.30;;
57889;SDS011;43707;50.184;18.966;2023-08-24T00:03:10;1.60;;;0.80;;
57889;SDS011;43707;50.184;18.966;2023-08-24T00:05:36;1.10;;;1.00;;
57889;SDS011;43707;50.184;18.966;2023-08-24T00:08:05;2.00;;;1.30;;
57889;SDS011;43707;50.184;18.966;2023-08-24T00:10:31;1.30;;;1.10;;
57889;SDS011;43707;50.184;18.966;2023-08-24T00:12:57;1.30;;;1.00;;
57889;SDS011;43707;50.184;18.966;2023-08-24T00:15:23;2.10;;;1.30;;
57889;SDS011;43707;50.184;18.966;2023-08-24T00:17:49;2.30;;;1.10;;
57889;SDS011;43707;50.184;18.966;2023-08-24T00:20:15;1.60;;;1.30;;
57889;SDS011;43707;50.184;18.966;2023-08-24T00:22:41;1.40;;;1.20;;
57889;SDS011;43707;50.184;18.966;2023-08-24T00:25:06;1.30;;;1.10;;
57889;SDS011;43707;50.184;18.966;2023-08-24T00:27:33;1.40;;;1.30;;
57889;SDS011;43707;50.184;18.966;2023-08-24T00:29:59;1.10;;;1.00;;
57889;SDS011;43707;50.184;18.966;2023-08-24T00:32:24;2.50;;;1.10;;
57889;SDS011;43707;50.184;18.966;2023-08-24T00:34:50;1.20;;;1.10;;
57889;SDS011;43707;50.184;18.966;2023-08-24T00:37:15;1.40;;;1.00;;
57889;SDS011;43707;50.184;18.966;2023-08-24T00:39:40;1.80;;;1.20;;
57889;SDS011;43707;50.184;18.966;2023-08-24T00:42:06;1.90;;;1.20;;
57889;SDS011;43707;50.184;18.966;2023-08-24T00:44:32;1.40;;;0.90;;
57889;SDS011;43707;50.184;18.966;2023-08-24T00:46:58;1.50;;;1.30;;
57889;SDS011;43707;50.184;18.966;2023-08-24T00:49:23;1.20;;;1.10;;
57889;SDS011;43707;50.184;18.966;2023-08-24T00:51:49;1.00;;;0.90;;
57889;SDS011;43707;50.184;18.966;2023-08-24T00:54:15;1.50;;;1.00;;
57889;SDS011;43707;50.184;18.966;2023-08-24T00:56:41;1.50;;;1.40;;
57889;SDS011;43707;50.184;18.966;2023-08-24T00:59:07;1.90;;;1.20;;
57889;SDS011;43707;50.184;18.966;2023-08-24T01:01:32;2.50;;;1.30;;
57889;SDS011;43707;50.184;18.966;2023-08-24T01:03:58;0.70;;;0.60;;
57889;SDS011;43707;50.184;18.966;2023-08-24T01:06:23;5.70;;;1.20;;
57889;SDS011;43707;50.184;18.966;2023-08-24T01:08:49;4.50;;;1.20;;
57889;SDS011;43707;50.184;18.966;2023-08-24T01:16:39;3.00;;;1.40;;
57889;SDS011;43707;50.184;18.966;2023-08-24T01:19:07;1.20;;;1.10;;
57889;SDS011;43707;50.184;18.966;2023-08-24T01:21:46;1.60;;;0.90;;
57889;SDS011;43707;50.184;18.966;2023-08-24T01:24:17;2.60;;;1.00;;
57889;SDS011;43707;50.184;18.966;2023-08-24T01:26:47;1.20;;;1.00;;
57889;SDS011;43707;50.184;18.966;2023-08-24T01:29:13;2.50;;;1.40;;
57889;SDS011;43707;50.184;18.966;2023-08-24T01:31:38;1.60;;;1.20;;
57889;SDS011;43707;50.184;18.966;2023-08-24T01:34:04;1.20;;;1.10;;
57889;SDS011;43707;50.184;18.966;2023-08-24T01:36:29;1.30;;;1.20;;
57889;SDS011;43707;50.184;18.966;2023-08-24T01:39:39;2.10;;;1.20;;
57889;SDS011;43707;50.184;18.966;2023-08-24T01:41:50;1.90;;;1.40;;
57889;SDS011;43707;50.184;18.966;2023-08-24T01:44:17;1.40;;;1.30;;
57889;SDS011;43707;50.184;18.966;2023-08-24T01:46:43;1.90;;;1.00;;
57889;SDS011;43707;50.184;18.966;2023-08-24T01:49:11;1.30;;;1.10;;
57889;SDS011;43707;50.184;18.966;2023-08-24T01:51:37;1.30;;;1.00;;
57889;SDS011;43707;50.184;18.966;2023-08-24T01:54:03;1.20;;;1.00;;
57889;SDS011;43707;50.184;18.966;2023-08-24T01:56:29;1.20;;;1.10;;
57889;SDS011;43707;50.184;18.966;2023-08-24T01:58:54;1.10;;;1.00;;
57889;SDS011;43707;50.184;18.966;2023-08-24T02:01:20;1.30;;;1.00;;
57889;SDS011;43707;50.184;18.966;2023-08-24T02:03:45;1.40;;;1.10;;
57889;SDS011;43707;50.184;18.966;2023-08-24T02:06:10;1.70;;;1.60;;
57889;SDS011;43707;50.184;18.966;2023-08-24T02:08:36;1.50;;;1.30;;
57889;SDS011;43707;50.184;18.966;2023-08-24T02:11:02;1.30;;;1.00;;
57889;SDS011;43707;50.184;18.966;2023-08-24T02:13:27;1.10;;;1.00;;
57889;SDS011;43707;50.184;18.966;2023-08-24T02:16:03;1.00;;;0.90;;
57889;SDS011;43707;50.184;18.966;2023-08-24T02:18:33;1.10;;;0.90;;
57889;SDS011;43707;50.184;18.966;2023-08-24T02:20:59;1.40;;;1.10;;
57889;SDS011;43707;50.184;18.966;2023-08-24T02:23:24;1.50;;;1.40;;
57889;SDS011;43707;50.184;18.966;2023-08-24T02:25:50;2.90;;;1.50;;
57889;SDS011;43707;50.184;18.966;2023-08-24T02:28:15;2.00;;;1.80;;
57889;SDS011;43707;50.184;18.966;2023-08-24T02:30:41;3.10;;;1.30;;
57889;SDS011;43707;50.184;18.966;2023-08-24T02:33:06;1.80;;;1.30;;
57889;SDS011;43707;50.184;18.966;2023-08-24T02:35:32;1.60;;;1.20;;
57889;SDS011;43707;50.184;18.966;2023-08-24T02:37:58;1.60;;;1.20;;
57889;SDS011;43707;50.184;18.966;2023-08-24T02:40:23;1.50;;;1.40;;
57889;SDS011;43707;50.184;18.966;2023-08-24T02:42:49;2.10;;;1.30;;
57889;SDS011;43707;50.184;18.966;2023-08-24T02:45:14;1.80;;;1.20;;
57889;SDS011;43707;50.184;18.966;2023-08-24T02:47:39;1.80;;;1.10;;
57889;SDS011;43707;50.184;18.966;2023-08-24T02:50:05;3.40;;;1.30;;
57889;SDS011;43707;50.184;18.966;2023-08-24T02:52:31;1.70;;;0.90;;
57889;SDS011;43707;50.184;18.966;2023-08-24T02:54:57;2.10;;;1.20;;
57889;SDS011;43707;50.184;18.966;2023-08-24T02:57:23;3.90;;;0.90;;
57889;SDS011;43707;50.184;18.966;2023-08-24T02:59:49;2.00;;;1.50;;
57889;SDS011;43707;50.184;18.966;2023-08-24T03:02:14;2.10;;;1.30;;
57889;SDS011;43707;50.184;18.966;2023-08-24T03:04:39;3.50;;;1.10;;
57889;SDS011;43707;50.184;18.966;2023-08-24T03:07:05;1.90;;;1.00;;
57889;SDS011;43707;50.184;18.966;2023-08-24T03:09:33;1.40;;;1.20;;
57889;SDS011;43707;50.184;18.966;2023-08-24T03:11:59;11.10;;;2.00;;
57889;SDS011;43707;50.184;18.966;2023-08-24T03:14:25;1.70;;;1.50;;
57889;SDS011;43707;50.184;18.966;2023-08-24T03:16:50;2.10;;;1.20;;
57889;SDS011;43707;50.184;18.966;2023-08-24T03:19:16;1.80;;;1.60;;
57889;SDS011;43707;50.184;18.966;2023-08-24T03:21:43;1.70;;;1.50;;
57889;SDS011;43707;50.184;18.966;2023-08-24T03:24:09;2.10;;;1.50;;
57889;SDS011;43707;50.184;18.966;2023-08-24T03:26:34;2.50;;;1.50;;
57889;SDS011;43707;50.184;18.966;2023-08-24T03:28:59;1.70;;;1.30;;
57889;SDS011;43707;50.184;18.966;2023-08-24T03:31:25;2.30;;;1.60;;
57889;SDS011;43707;50.184;18.966;2023-08-24T03:33:51;1.60;;;1.40;;
57889;SDS011;43707;50.184;18.966;2023-08-24T03:36:17;2.40;;;1.80;;
57889;SDS011;43707;50.184;18.966;2023-08-24T03:38:42;1.60;;;1.30;;
57889;SDS011;43707;50.184;18.966;2023-08-24T03:41:08;2.50;;;1.60;;
57889;SDS011;43707;50.184;18.966;2023-08-24T03:43:33;1.70;;;1.50;;
57889;SDS011;43707;50.184;18.966;2023-08-24T03:46:00;4.60;;;1.60;;
57889;SDS011;43707;50.184;18.966;2023-08-24T03:48:26;1.70;;;1.50;;
57889;SDS011;43707;50.184;18.966;2023-08-24T03:50:56;2.00;;;1.80;;
57889;SDS011;43707;50.184;18.966;2023-08-24T03:53:23;4.20;;;1.80;;
57889;SDS011;43707;50.184;18.966;2023-08-24T03:55:49;1.90;;;1.70;;
57889;SDS011;43707;50.184;18.966;2023-08-24T03:58:16;1.80;;;1.60;;
57889;SDS011;43707;50.184;18.966;2023-08-24T04:00:42;6.10;;;1.80;;
57889;SDS011;43707;50.184;18.966;2023-08-24T04:03:08;4.20;;;2.50;;
57889;SDS011;43707;50.184;18.966;2023-08-24T04:05:33;4.10;;;2.20;;
57889;SDS011;43707;50.184;18.966;2023-08-24T04:07:59;2.20;;;2.00;;
57889;SDS011;43707;50.184;18.966;2023-08-24T04:10:26;2.80;;;2.20;;
57889;SDS011;43707;50.184;18.966;2023-08-24T04:12:52;2.70;;;2.20;;
57889;SDS011;43707;50.184;18.966;2023-08-24T04:15:18;2.20;;;1.50;;
57889;SDS011;43707;50.184;18.966;2023-08-24T04:17:43;4.40;;;2.40;;
57889;SDS011;43707;50.184;18.966;2023-08-24T04:20:09;3.60;;;2.30;;
57889;SDS011;43707;50.184;18.966;2023-08-24T04:22:35;3.50;;;2.90;;
57889;SDS011;43707;50.184;18.966;2023-08-24T04:25:00;6.40;;;4.90;;
57889;SDS011;43707;50.184;18.966;2023-08-24T04:27:26;3.60;;;3.00;;
57889;SDS011;43707;50.184;18.966;2023-08-24T04:29:51;4.50;;;3.80;;
57889;SDS011;43707;50.184;18.966;2023-08-24T04:32:17;5.10;;;4.00;;
57889;SDS011;43707;50.184;18.966;2023-08-24T04:34:42;4.20;;;3.80;;
57889;SDS011;43707;50.184;18.966;2023-08-24T04:37:08;4.10;;;3.70;;
57889;SDS011;43707;50.184;18.966;2023-08-24T04:39:33;4.20;;;3.20;;
57889;SDS011;43707;50.184;18.966;2023-08-24T04:41:59;6.30;;;3.40;;
57889;SDS011;43707;50.184;18.966;2023-08-24T04:44:24;3.70;;;2.70;;
57889;SDS011;43707;50.184;18.966;2023-08-24T04:46:50;4.40;;;2.70;;
57889;SDS011;43707;50.184;18.966;2023-08-24T04:49:15;3.40;;;3.10;;
57889;SDS011;43707;50.184;18.966;2023-08-24T04:51:41;9.10;;;3.30;;
57889;SDS011;43707;50.184;18.966;2023-08-24T04:54:06;4.00;;;3.00;;
57889;SDS011;43707;50.184;18.966;2023-08-24T04:56:31;4.30;;;3.10;;
57889;SDS011;43707;50.184;18.966;2023-08-24T04:58:58;3.60;;;2.50;;
57889;SDS011;43707;50.184;18.966;2023-08-24T05:01:26;2.60;;;2.40;;
57889;SDS011;43707;50.184;18.966;2023-08-24T05:03:52;3.30;;;2.40;;
57889;SDS011;43707;50.184;18.966;2023-08-24T05:06:18;2.90;;;2.50;;
57889;SDS011;43707;50.184;18.966;2023-08-24T05:08:44;3.40;;;2.40;;
57889;SDS011;43707;50.184;18.966;2023-08-24T05:11:10;2.60;;;2.40;;
57889;SDS011;43707;50.184;18.966;2023-08-24T05:13:42;2.30;;;2.10;;
57889;SDS011;43707;50.184;18.966;2023-08-24T05:16:09;2.30;;;1.80;;
57889;SDS011;43707;50.184;18.966;2023-08-24T05:18:34;2.50;;;2.30;;
57889;SDS011;43707;50.184;18.966;2023-08-24T05:21:03;2.60;;;2.20;;
57889;SDS011;43707;50.184;18.966;2023-08-24T05:23:29;2.90;;;2.60;;
57889;SDS011;43707;50.184;18.966;2023-08-24T05:25:58;3.60;;;1.80;;
57889;SDS011;43707;50.184;18.966;2023-08-24T05:28:25;4.70;;;2.40;;
57889;SDS011;43707;50.184;18.966;2023-08-24T05:30:51;3.30;;;2.00;;
57889;SDS011;43707;50.184;18.966;2023-08-24T05:33:17;2.70;;;2.00;;
57889;SDS011;43707;50.184;18.966;2023-08-24T05:35:44;2.40;;;2.20;;
57889;SDS011;43707;50.184;18.966;2023-08-24T05:38:09;2.00;;;1.70;;
57889;SDS011;43707;50.184;18.966;2023-08-24T05:40:35;5.40;;;2.40;;
57889;SDS011;43707;50.184;18.966;2023-08-24T05:43:02;2.50;;;2.30;;
57889;SDS011;43707;50.184;18.966;2023-08-24T05:45:28;3.00;;;2.50;;
57889;SDS011;43707;50.184;18.966;2023-08-24T05:47:53;4.40;;;2.50;;
57889;SDS011;43707;50.184;18.966;2023-08-24T05:50:19;3.10;;;1.80;;
57889;SDS011;43707;50.184;18.966;2023-08-24T05:52:44;2.80;;;2.20;;
57889;SDS011;43707;50.184;18.966;2023-08-24T05:55:09;6.30;;;5.80;;
57889;SDS011;43707;50.184;18.966;2023-08-24T05:57:35;5.60;;;3.60;;
57889;SDS011;43707;50.184;18.966;2023-08-24T06:00:00;3.20;;;2.70;;
57889;SDS011;43707;50.184;18.966;2023-08-24T06:02:25;10.70;;;4.70;;
57889;SDS011;43707;50.184;18.966;2023-08-24T06:04:51;10.60;;;4.40;;
57889;SDS011;43707;50.184;18.966;2023-08-24T06:07:16;5.40;;;3.40;;
57889;SDS011;43707;50.184;18.966;2023-08-24T06:09:42;5.00;;;4.30;;
57889;SDS011;43707;50.184;18.966;2023-08-24T06:12:08;8.70;;;5.10;;
57889;SDS011;43707;50.184;18.966;2023-08-24T06:14:33;8.10;;;5.10;;
57889;SDS011;43707;50.184;18.966;2023-08-24T06:16:59;17.70;;;7.90;;
57889;SDS011;43707;50.184;18.966;2023-08-24T06:19:24;12.10;;;8.60;;
57889;SDS011;43707;50.184;18.966;2023-08-24T06:21:50;19.70;;;9.30;;
57889;SDS011;43707;50.184;18.966;2023-08-24T06:24:15;20.90;;;7.80;;
57889;SDS011;43707;50.184;18.966;2023-08-24T06:26:41;11.00;;;7.30;;
57889;SDS011;43707;50.184;18.966;2023-08-24T06:29:06;13.30;;;5.60;;
57889;SDS011;43707;50.184;18.966;2023-08-24T06:31:31;6.80;;;3.70;;
57889;SDS011;43707;50.184;18.966;2023-08-24T06:33:58;5.80;;;3.80;;
57889;SDS011;43707;50.184;18.966;2023-08-24T06:36:23;6.40;;;4.00;;
57889;SDS011;43707;50.184;18.966;2023-08-24T06:38:49;12.80;;;6.10;;
57889;SDS011;43707;50.184;18.966;2023-08-24T06:41:14;9.00;;;6.20;;
57889;SDS011;43707;50.184;18.966;2023-08-24T06:43:40;15.40;;;7.70;;
57889;SDS011;43707;50.184;18.966;2023-08-24T06:46:05;8.80;;;6.70;;
57889;SDS011;43707;50.184;18.966;2023-08-24T06:48:34;9.30;;;6.50;;
57889;SDS011;43707;50.184;18.966;2023-08-24T06:51:00;12.60;;;7.70;;
57889;SDS011;43707;50.184;18.966;2023-08-24T06:53:26;12.30;;;7.50;;
57889;SDS011;43707;50.184;18.966;2023-08-24T06:55:57;8.10;;;4.10;;
57889;SDS011;43707;50.184;18.966;2023-08-24T06:58:23;11.00;;;6.60;;
57889;SDS011;43707;50.184;18.966;2023-08-24T07:00:49;10.00;;;6.50;;
57889;SDS011;43707;50.184;18.966;2023-08-24T07:03:19;5.20;;;4.20;;
57889;SDS011;43707;50.184;18.966;2023-08-24T07:05:45;11.90;;;6.80;;
57889;SDS011;43707;50.184;18.966;2023-08-24T07:08:11;6.30;;;4.60;;
57889;SDS011;43707;50.184;18.966;2023-08-24T07:10:37;7.70;;;4.00;;
57889;SDS011;43707;50.184;18.966;2023-08-24T07:13:02;5.30;;;3.00;;
57889;SDS011;43707;50.184;18.966;2023-08-24T07:15:30;9.40;;;2.60;;
57889;SDS011;43707;50.184;18.966;2023-08-24T07:17:56;3.90;;;2.90;;
57889;SDS011;43707;50.184;18.966;2023-08-24T07:20:22;3.10;;;2.20;;
57889;SDS011;43707;50.184;18.966;2023-08-24T07:22:48;2.30;;;1.70;;
57889;SDS011;43707;50.184;18.966;2023-08-24T07:25:15;2.60;;;2.30;;
57889;SDS011;43707;50.184;18.966;2023-08-24T07:27:43;2.40;;;1.80;;
57889;SDS011;43707;50.184;18.966;2023-08-24T07:30:09;2.60;;;1.50;;
57889;SDS011;43707;50.184;18.966;2023-08-24T07:32:36;3.10;;;2.10;;
57889;SDS011;43707;50.184;18.966;2023-08-24T07:35:01;1.40;;;1.10;;
57889;SDS011;43707;50.184;18.966;2023-08-24T07:37:27;2.00;;;1.60;;
57889;SDS011;43707;50.184;18.966;2023-08-24T07:39:52;2.90;;;1.00;;
57889;SDS011;43707;50.184;18.966;2023-08-24T07:42:21;2.80;;;1.20;;
57889;SDS011;43707;50.184;18.966;2023-08-24T07:44:47;1.50;;;1.00;;
57889;SDS011;43707;50.184;18.966;2023-08-24T07:47:12;4.00;;;1.70;;
57889;SDS011;43707;50.184;18.966;2023-08-24T07:49:38;1.50;;;0.90;;
57889;SDS011;43707;50.184;18.966;2023-08-24T07:52:08;3.50;;;1.20;;
57889;SDS011;43707;50.184;18.966;2023-08-24T07:54:34;1.00;;;0.80;;
57889;SDS011;43707;50.184;18.966;2023-08-24T07:57:00;1.30;;;0.70;;
57889;SDS011;43707;50.184;18.966;2023-08-24T07:59:26;2.10;;;0.60;;
57889;SDS011;43707;50.184;18.966;2023-08-24T08:01:51;1.10;;;0.70;;
57889;SDS011;43707;50.184;18.966;2023-08-24T08:04:17;1.90;;;0.40;;
57889;SDS011;43707;50.184;18.966;2023-08-24T08:06:42;0.90;;;0.60;;
57889;SDS011;43707;50.184;18.966;2023-08-24T08:09:07;0.90;;;0.40;;
57889;SDS011;43707;50.184;18.966;2023-08-24T08:11:33;0.40;;;0.40;;
57889;SDS011;43707;50.184;18.966;2023-08-24T08:14:00;0.90;;;0.60;;
57889;SDS011;43707;50.184;18.966;2023-08-24T08:16:25;0.50;;;0.40;;
57889;SDS011;43707;50.184;18.966;2023-08-24T08:18:50;1.20;;;0.50;;
57889;SDS011;43707;50.184;18.966;2023-08-24T08:21:16;1.60;;;0.30;;
57889;SDS011;43707;50.184;18.966;2023-08-24T08:23:43;0.40;;;0.20;;
57889;SDS011;43707;50.184;18.966;2023-08-24T08:26:12;0.10;;;0.10;;
57889;SDS011;43707;50.184;18.966;2023-08-24T08:28:40;0.90;;;0.30;;
57889;SDS011;43707;50.184;18.966;2023-08-24T08:31:06;0.20;;;0.20;;
57889;SDS011;43707;50.184;18.966;2023-08-24T08:33:31;0.20;;;0.20;;
57889;SDS011;43707;50.184;18.966;2023-08-24T08:35:57;0.40;;;0.20;;
57889;SDS011;43707;50.184;18.966;2023-08-24T08:38:22;0.30;;;0.30;;
57889;SDS011;43707;50.184;18.966;2023-08-24T08:40:51;0.20;;;0.20;;
57889;SDS011;43707;50.184;18.966;2023-08-24T08:43:21;0.70;;;0.30;;
57889;SDS011;43707;50.184;18.966;2023-08-24T08:45:51;0.20;;;0.20;;
57889;SDS011;43707;50.184;18.966;2023-08-24T08:48:17;3.50;;;0.30;;
57889;SDS011;43707;50.184;18.966;2023-08-24T08:50:43;0.40;;;0.30;;
57889;SDS011;43707;50.184;18.966;2023-08-24T08:53:09;0.50;;;0.40;;
57889;SDS011;43707;50.184;18.966;2023-08-24T08:55:34;0.20;;;0.20;;
57889;SDS011;43707;50.184;18.966;2023-08-24T08:58:00;0.20;;;0.20;;
57889;SDS011;43707;50.184;18.966;2023-08-24T09:00:25;0.20;;;0.20;;
57889;SDS011;43707;50.184;18.966;2023-08-24T09:02:51;0.20;;;0.20;;
57889;SDS011;43707;50.184;18.966;2023-08-24T09:05:18;0.40;;;0.30;;
57889;SDS011;43707;50.184;18.966;2023-08-24T09:07:45;0.30;;;0.30;;
57889;SDS011;43707;50.184;18.966;2023-08-24T09:10:12;0.30;;;0.30;;
57889;SDS011;43707;50.184;18.966;2023-08-24T09:12:38;0.30;;;0.30;;
57889;SDS011;43707;50.184;18.966;2023-08-24T09:15:06;0.30;;;0.20;;
57889;SDS011;43707;50.184;18.966;2023-08-24T09:17:33;0.20;;;0.20;;
57889;SDS011;43707;50.184;18.966;2023-08-24T09:19:59;0.60;;;0.30;;
57889;SDS011;43707;50.184;18.966;2023-08-24T09:22:25;0.20;;;0.20;;
57889;SDS011;43707;50.184;18.966;2023-08-24T09:24:51;0.70;;;0.30;;
57889;SDS011;43707;50.184;18.966;2023-08-24T09:27:19;0.40;;;0.30;;
57889;SDS011;43707;50.184;18.966;2023-08-24T09:29:55;0.30;;;0.20;;
57889;SDS011;43707;50.184;18.966;2023-08-24T09:32:24;0.40;;;0.20;;
57889;SDS011;43707;50.184;18.966;2023-08-24T09:34:50;1.80;;;0.30;;
57889;SDS011;43707;50.184;18.966;2023-08-24T09:37:16;1.10;;;0.40;;
57889;SDS011;43707;50.184;18.966;2023-08-24T09:39:42;0.70;;;0.40;;
57889;SDS011;43707;50.184;18.966;2023-08-24T09:42:07;0.40;;;0.40;;
57889;SDS011;43707;50.184;18.966;2023-08-24T09:44:33;0.90;;;0.40;;
57889;SDS011;43707;50.184;18.966;2023-08-24T09:46:58;2.20;;;0.40;;
57889;SDS011;43707;50.184;18.966;2023-08-24T09:49:24;1.40;;;0.50;;
57889;SDS011;43707;50.184;18.966;2023-08-24T09:51:51;7.10;;;0.80;;
57889;SDS011;43707;50.184;18.966;2023-08-24T09:54:21;1.20;;;0.60;;
57889;SDS011;43707;50.184;18.966;2023-08-24T09:56:51;6.70;;;0.80;;
57889;SDS011;43707;50.184;18.966;2023-08-24T09:59:17;4.20;;;0.90;;
57889;SDS011;43707;50.184;18.966;2023-08-24T10:01:44;1.00;;;0.70;;
57889;SDS011;43707;50.184;18.966;2023-08-24T10:04:12;1.90;;;1.20;;
57889;SDS011;43707;50.184;18.966;2023-08-24T10:06:40;1.50;;;0.80;;
57889;SDS011;43707;50.184;18.966;2023-08-24T10:12:31;7.10;;;1.10;;
57889;SDS011;43707;50.184;18.966;2023-08-24T10:15:00;2.30;;;0.80;;
57889;SDS011;43707;50.184;18.966;2023-08-24T10:17:32;2.40;;;0.80;;
57889;SDS011;43707;50.184;18.966;2023-08-24T10:19:59;3.50;;;0.60;;
57889;SDS011;43707;50.184;18.966;2023-08-24T10:22:34;3.20;;;0.50;;
57889;SDS011;43707;50.184;18.966;2023-08-24T10:25:00;1.20;;;0.30;;
57889;SDS011;43707;50.184;18.966;2023-08-24T10:27:27;0.60;;;0.20;;
57889;SDS011;43707;50.184;18.966;2023-08-24T10:29:53;0.40;;;0.40;;
57889;SDS011;43707;50.184;18.966;2023-08-24T10:32:19;1.40;;;0.40;;
57889;SDS011;43707;50.184;18.966;2023-08-24T10:34:45;0.90;;;0.40;;
57889;SDS011;43707;50.184;18.966;2023-08-24T10:37:10;0.70;;;0.30;;
57889;SDS011;43707;50.184;18.966;2023-08-24T10:39:37;0.80;;;0.50;;
57889;SDS011;43707;50.184;18.966;2023-08-24T10:42:10;0.70;;;0.40;;
57889;SDS011;43707;50.184;18.966;2023-08-24T10:44:39;0.40;;;0.40;;
57889;SDS011;43707;50.184;18.966;2023-08-24T10:47:06;0.30;;;0.30;;
57889;SDS011;43707;50.184;18.966;2023-08-24T10:49:56;0.30;;;0.30;;
57889;SDS011;43707;50.184;18.966;2023-08-24T10:52:35;1.70;;;0.20;;
57889;SDS011;43707;50.184;18.966;2023-08-24T10:55:02;1.70;;;0.20;;
57889;SDS011;43707;50.184;18.966;2023-08-24T11:00:05;0.60;;;0.50;;
57889;SDS011;43707;50.184;18.966;2023-08-24T11:02:48;5.00;;;0.70;;
57889;SDS011;43707;50.184;18.966;2023-08-24T11:05:24;1.10;;;0.50;;
57889;SDS011;43707;50.184;18.966;2023-08-24T11:08:02;0.70;;;0.40;;
57889;SDS011;43707;50.184;18.966;2023-08-24T11:13:07;2.00;;;0.50;;
57889;SDS011;43707;50.184;18.966;2023-08-24T11:15:38;0.90;;;0.50;;
57889;SDS011;43707;50.184;18.966;2023-08-24T11:18:11;1.20;;;0.70;;
57889;SDS011;43707;50.184;18.966;2023-08-24T11:20:37;0.80;;;0.40;;
57889;SDS011;43707;50.184;18.966;2023-08-24T11:23:16;0.70;;;0.40;;
57889;SDS011;43707;50.184;18.966;2023-08-24T11:25:42;0.60;;;0.40;;
57889;SDS011;43707;50.184;18.966;2023-08-24T11:28:08;0.30;;;0.30;;
57889;SDS011;43707;50.184;18.966;2023-08-24T11:30:33;0.60;;;0.40;;
57889;SDS011;43707;50.184;18.966;2023-08-24T11:33:00;0.80;;;0.40;;
57889;SDS011;43707;50.184;18.966;2023-08-24T11:35:25;0.60;;;0.50;;
57889;SDS011;43707;50.184;18.966;2023-08-24T11:37:52;0.30;;;0.30;;
57889;SDS011;43707;50.184;18.966;2023-08-24T11:40:18;0.80;;;0.80;;
57889;SDS011;43707;50.184;18.966;2023-08-24T11:42:54;0.40;;;0.30;;
57889;SDS011;43707;50.184;18.966;2023-08-24T11:45:20;0.40;;;0.30;;
57889;SDS011;43707;50.184;18.966;2023-08-24T11:47:46;0.30;;;0.30;;
57889;SDS011;43707;50.184;18.966;2023-08-24T11:50:12;0.60;;;0.40;;
57889;SDS011;43707;50.184;18.966;2023-08-24T11:52:40;1.90;;;0.40;;
57889;SDS011;43707;50.184;18.966;2023-08-24T11:55:07;0.40;;;0.40;;
57889;SDS011;43707;50.184;18.966;2023-08-24T11:57:36;0.40;;;0.40;;
57889;SDS011;43707;50.184;18.966;2023-08-24T12:00:03;0.30;;;0.20;;
57889;SDS011;43707;50.184;18.966;2023-08-24T12:02:29;0.30;;;0.30;;
57889;SDS011;43707;50.184;18.966;2023-08-24T12:04:55;2.40;;;2.00;;
57889;SDS011;43707;50.184;18.966;2023-08-24T12:07:21;1.70;;;1.40;;
57889;SDS011;43707;50.184;18.966;2023-08-24T12:09:47;1.00;;;0.60;;
57889;SDS011;43707;50.184;18.966;2023-08-24T12:12:15;0.90;;;0.70;;
57889;SDS011;43707;50.184;18.966;2023-08-24T12:14:42;3.00;;;1.00;;
57889;SDS011;43707;50.184;18.966;2023-08-24T12:17:11;1.30;;;1.00;;
57889;SDS011;43707;50.184;18.966;2023-08-24T12:19:40;2.60;;;1.20;;
57889;SDS011;43707;50.184;18.966;2023-08-24T12:22:15;1.10;;;1.00;;
57889;SDS011;43707;50.184;18.966;2023-08-24T12:24:44;0.90;;;0.80;;
57889;SDS011;43707;50.184;18.966;2023-08-24T12:27:25;1.30;;;0.90;;
57889;SDS011;43707;50.184;18.966;2023-08-24T12:29:51;0.80;;;0.80;;
57889;SDS011;43707;50.184;18.966;2023-08-24T12:32:17;1.70;;;0.90;;
57889;SDS011;43707;50.184;18.966;2023-08-24T12:34:48;1.60;;;0.80;;
57889;SDS011;43707;50.184;18.966;2023-08-24T12:37:16;1.00;;;0.80;;
57889;SDS011;43707;50.184;18.966;2023-08-24T12:39:42;1.40;;;1.10;;
57889;SDS011;43707;50.184;18.966;2023-08-24T12:42:07;1.60;;;0.90;;
57889;SDS011;43707;50.184;18.966;2023-08-24T12:44:33;1.80;;;0.90;;
57889;SDS011;43707;50.184;18.966;2023-08-24T12:46:59;3.00;;;1.30;;
57889;SDS011;43707;50.184;18.966;2023-08-24T12:49:24;1.00;;;0.90;;
57889;SDS011;43707;50.184;18.966;2023-08-24T12:51:49;1.00;;;0.90;;
57889;SDS011;43707;50.184;18.966;2023-08-24T12:54:15;2.10;;;1.10;;
57889;SDS011;43707;50.184;18.966;2023-08-24T12:56:40;1.10;;;0.90;;
57889;SDS011;43707;50.184;18.966;2023-08-24T12:59:06;3.00;;;1.30;;
57889;SDS011;43707;50.184;18.966;2023-08-24T13:01:31;1.60;;;1.10;;
57889;SDS011;43707;50.184;18.966;2023-08-24T13:03:57;2.40;;;0.90;;
57889;SDS011;43707;50.184;18.966;2023-08-24T13:06:22;1.90;;;1.20;;
57889;SDS011;43707;50.184;18.966;2023-08-24T13:08:48;2.80;;;1.00;;
57889;SDS011;43707;50.184;18.966;2023-08-24T13:11:13;1.70;;;1.00;;
57889;SDS011;43707;50.184;18.966;2023-08-24T13:13:38;3.00;;;0.90;;
57889;SDS011;43707;50.184;18.966;2023-08-24T13:16:04;5.40;;;0.80;;
57889;SDS011;43707;50.184;18.966;2023-08-24T13:18:29;1.50;;;0.70;;
57889;SDS011;43707;50.184;18.966;2023-08-24T13:20:55;1.30;;;0.80;;
57889;SDS011;43707;50.184;18.966;2023-08-24T13:23:20;0.90;;;0.80;;
57889;SDS011;43707;50.184;18.966;2023-08-24T13:25:45;1.00;;;0.90;;
57889;SDS011;43707;50.184;18.966;2023-08-24T13:28:11;1.10;;;0.80;;
57889;SDS011;43707;50.184;18.966;2023-08-24T13:30:37;1.30;;;0.80;;
57889;SDS011;43707;50.184;18.966;2023-08-24T13:33:02;0.70;;;0.70;;
57889;SDS011;43707;50.184;18.966;2023-08-24T13:35:28;0.80;;;0.70;;
57889;SDS011;43707;50.184;18.966;2023-08-24T13:37:54;1.80;;;0.90;;
57889;SDS011;43707;50.184;18.966;2023-08-24T13:40:19;0.80;;;0.60;;
57889;SDS011;43707;50.184;18.966;2023-08-24T13:42:44;2.20;;;0.70;;
57889;SDS011;43707;50.184;18.966;2023-08-24T13:45:10;0.60;;;0.60;;
57889;SDS011;43707;50.184;18.966;2023-08-24T13:47:35;0.50;;;0.50;;
57889;SDS011;43707;50.184;18.966;2023-08-24T13:50:01;0.50;;;0.50;;
57889;SDS011;43707;50.184;18.966;2023-08-24T13:52:27;0.30;;;0.30;;
57889;SDS011;43707;50.184;18.966;2023-08-24T13:54:53;0.40;;;0.40;;
57889;SDS011;43707;50.184;18.966;2023-08-24T13:57:18;0.60;;;0.30;;
57889;SDS011;43707;50.184;18.966;2023-08-24T13:59:44;0.30;;;0.30;;
57889;SDS011;43707;50.184;18.966;2023-08-24T14:02:09;0.20;;;0.20;;
57889;SDS011;43707;50.184;18.966;2023-08-24T14:04:36;0.20;;;0.20;;
57889;SDS011;43707;50.184;18.966;2023-08-24T14:07:02;0.20;;;0.20;;
57889;SDS011;43707;50.184;18.966;2023-08-24T14:09:28;0.20;;;0.20;;
57889;SDS011;43707;50.184;18.966;2023-08-24T14:11:53;0.10;;;0.10;;
57889;SDS011;43707;50.184;18.966;2023-08-24T14:14:19;0.10;;;0.10;;
57889;SDS011;43707;50.184;18.966;2023-08-24T14:16:45;0.20;;;0.20;;
57889;SDS011;43707;50.184;18.966;2023-08-24T14:19:11;0.10;;;0.10;;
57889;SDS011;43707;50.184;18.966;2023-08-24T14:21:36;0.20;;;0.20;;
57889;SDS011;43707;50.184;18.966;2023-08-24T14:24:02;0.10;;;0.10;;
57889;SDS011;43707;50.184;18.966;2023-08-24T14:26:28;0.10;;;0.10;;
57889;SDS011;43707;50.184;18.966;2023-08-24T14:28:54;0.40;;;0.10;;
57889;SDS011;43707;50.184;18.966;2023-08-24T14:31:21;0.20;;;0.20;;
57889;SDS011;43707;50.184;18.966;2023-08-24T14:33:51;0.10;;;0.10;;
57889;SDS011;43707;50.184;18.966;2023-08-24T14:36:17;0.10;;;0.10;;
57889;SDS011;43707;50.184;18.966;2023-08-24T14:38:45;1.50;;;0.10;;
57889;SDS011;43707;50.184;18.966;2023-08-24T14:41:11;0.10;;;0.10;;
57889;SDS011;43707;50.184;18.966;2023-08-24T14:43:38;0.10;;;0.10;;